sensor_id;sensor_type;location;lat;lon;timestamp;P1;durP1;ratioP1;P2;durP2;ratioP2
16177;SDS011;8195;51.220;9.746;2023-12-07T00:00:52;25.83;;;20.87;;
16177;SDS011;8195;51.220;9.746;2023-12-07T00:05:12;30.97;;;21.73;;
16177;SDS011;8195;51.220;9.746;2023-12-07T00:09:32;27.63;;;20.43;;
16177;SDS011;8195;51.220;9.746;2023-12-07T00:13:53;28.97;;;19.43;;
16177;SDS011;8195;51.220;9.746;2023-12-07T00:18:13;28.60;;;22.37;;
16177;SDS011;8195;51.220;9.746;2023-12-07T00:22:33;30.77;;;21.67;;
16177;SDS011;8195;51.220;9.746;2023-12-07T00:26:53;36.10;;;23.10;;
16177;SDS011;8195;51.220;9.746;2023-12-07T00:31:14;29.17;;;21.80;;
16177;SDS011;8195;51.220;9.746;2023-12-07T00:35:34;34.73;;;25.27;;
16177;SDS011;8195;51.220;9.746;2023-12-07T00:39:55;35.47;;;25.63;;
16177;SDS011;8195;51.220;9.746;2023-12-07T00:44:15;36.50;;;26.00;;
16177;SDS011;8195;51.220;9.746;2023-12-07T00:48:35;35.27;;;25.33;;
16177;SDS011;8195;51.220;9.746;2023-12-07T00:52:56;38.13;;;26.53;;
16177;SDS011;8195;51.220;9.746;2023-12-07T00:57:16;36.27;;;26.10;;
16177;SDS011;8195;51.220;9.746;2023-12-07T01:01:36;37.17;;;25.90;;
16177;SDS011;8195;51.220;9.746;2023-12-07T01:05:56;38.37;;;27.57;;
16177;SDS011;8195;51.220;9.746;2023-12-07T01:10:17;42.90;;;28.43;;
16177;SDS011;8195;51.220;9.746;2023-12-07T01:14:37;41.50;;;27.60;;
16177;SDS011;8195;51.220;9.746;2023-12-07T01:18:57;38.87;;;27.93;;
16177;SDS011;8195;51.220;9.746;2023-12-07T01:23:18;43.40;;;28.83;;
16177;SDS011;8195;51.220;9.746;2023-12-07T01:27:38;46.07;;;29.00;;
16177;SDS011;8195;51.220;9.746;2023-12-07T01:31:58;43.77;;;29.93;;
16177;SDS011;8195;51.220;9.746;2023-12-07T01:36:19;45.17;;;30.00;;
16177;SDS011;8195;51.220;9.746;2023-12-07T01:40:39;46.97;;;30.63;;
16177;SDS011;8195;51.220;9.746;2023-12-07T01:44:59;41.43;;;29.60;;
16177;SDS011;8195;51.220;9.746;2023-12-07T01:49:20;42.67;;;29.33;;
16177;SDS011;8195;51.220;9.746;2023-12-07T01:53:40;45.10;;;31.10;;
16177;SDS011;8195;51.220;9.746;2023-12-07T01:58:01;40.47;;;29.80;;
16177;SDS011;8195;51.220;9.746;2023-12-07T02:02:21;42.20;;;29.40;;
16177;SDS011;8195;51.220;9.746;2023-12-07T02:06:41;44.40;;;30.07;;
16177;SDS011;8195;51.220;9.746;2023-12-07T02:11:02;46.13;;;30.63;;
16177;SDS011;8195;51.220;9.746;2023-12-07T02:15:22;43.63;;;30.67;;
16177;SDS011;8195;51.220;9.746;2023-12-07T02:24:03;43.60;;;30.03;;
16177;SDS011;8195;51.220;9.746;2023-12-07T02:28:25;42.57;;;29.77;;
16177;SDS011;8195;51.220;9.746;2023-12-07T02:32:46;43.43;;;30.30;;
16177;SDS011;8195;51.220;9.746;2023-12-07T02:37:06;40.33;;;27.97;;
16177;SDS011;8195;51.220;9.746;2023-12-07T02:41:27;44.40;;;28.90;;
16177;SDS011;8195;51.220;9.746;2023-12-07T02:45:48;41.07;;;28.43;;
16177;SDS011;8195;51.220;9.746;2023-12-07T02:50:08;40.23;;;28.73;;
16177;SDS011;8195;51.220;9.746;2023-12-07T02:54:29;44.90;;;29.13;;
16177;SDS011;8195;51.220;9.746;2023-12-07T02:58:49;44.70;;;29.70;;
16177;SDS011;8195;51.220;9.746;2023-12-07T03:03:10;39.37;;;28.17;;
16177;SDS011;8195;51.220;9.746;2023-12-07T03:07:30;38.17;;;27.17;;
16177;SDS011;8195;51.220;9.746;2023-12-07T03:11:50;34.90;;;25.57;;
16177;SDS011;8195;51.220;9.746;2023-12-07T03:16:11;35.73;;;25.00;;
16177;SDS011;8195;51.220;9.746;2023-12-07T03:20:31;37.53;;;26.73;;
16177;SDS011;8195;51.220;9.746;2023-12-07T03:24:52;35.57;;;25.73;;
16177;SDS011;8195;51.220;9.746;2023-12-07T03:29:12;37.97;;;26.17;;
16177;SDS011;8195;51.220;9.746;2023-12-07T03:33:33;36.23;;;25.00;;
16177;SDS011;8195;51.220;9.746;2023-12-07T03:37:53;37.90;;;27.23;;
16177;SDS011;8195;51.220;9.746;2023-12-07T03:42:13;37.13;;;26.57;;
16177;SDS011;8195;51.220;9.746;2023-12-07T03:46:34;36.50;;;26.87;;
16177;SDS011;8195;51.220;9.746;2023-12-07T03:50:54;38.43;;;27.00;;
16177;SDS011;8195;51.220;9.746;2023-12-07T03:55:14;36.20;;;25.83;;
16177;SDS011;8195;51.220;9.746;2023-12-07T03:59:38;36.77;;;24.93;;
16177;SDS011;8195;51.220;9.746;2023-12-07T04:03:58;39.23;;;26.60;;
16177;SDS011;8195;51.220;9.746;2023-12-07T04:08:18;35.77;;;24.77;;
16177;SDS011;8195;51.220;9.746;2023-12-07T04:12:39;32.80;;;23.97;;
16177;SDS011;8195;51.220;9.746;2023-12-07T04:16:59;34.33;;;24.20;;
16177;SDS011;8195;51.220;9.746;2023-12-07T04:21:19;40.00;;;25.97;;
16177;SDS011;8195;51.220;9.746;2023-12-07T04:25:40;38.97;;;26.30;;
16177;SDS011;8195;51.220;9.746;2023-12-07T04:30:00;40.10;;;25.73;;
16177;SDS011;8195;51.220;9.746;2023-12-07T04:34:22;38.00;;;25.90;;
16177;SDS011;8195;51.220;9.746;2023-12-07T04:38:42;39.07;;;26.10;;
16177;SDS011;8195;51.220;9.746;2023-12-07T04:43:02;39.37;;;26.73;;
16177;SDS011;8195;51.220;9.746;2023-12-07T04:47:23;39.57;;;26.97;;
16177;SDS011;8195;51.220;9.746;2023-12-07T04:51:43;40.97;;;26.33;;
16177;SDS011;8195;51.220;9.746;2023-12-07T04:56:04;43.70;;;27.23;;
16177;SDS011;8195;51.220;9.746;2023-12-07T05:00:24;38.20;;;26.90;;
16177;SDS011;8195;51.220;9.746;2023-12-07T05:04:45;38.23;;;26.47;;
16177;SDS011;8195;51.220;9.746;2023-12-07T05:09:05;38.87;;;26.27;;
16177;SDS011;8195;51.220;9.746;2023-12-07T05:13:25;38.17;;;26.27;;
16177;SDS011;8195;51.220;9.746;2023-12-07T05:17:46;37.23;;;26.20;;
16177;SDS011;8195;51.220;9.746;2023-12-07T05:22:06;36.50;;;24.93;;
16177;SDS011;8195;51.220;9.746;2023-12-07T05:26:26;32.93;;;24.53;;
16177;SDS011;8195;51.220;9.746;2023-12-07T05:30:47;38.67;;;27.50;;
16177;SDS011;8195;51.220;9.746;2023-12-07T05:35:07;45.70;;;27.80;;
16177;SDS011;8195;51.220;9.746;2023-12-07T05:39:28;39.07;;;27.27;;
16177;SDS011;8195;51.220;9.746;2023-12-07T05:43:48;41.47;;;26.73;;
16177;SDS011;8195;51.220;9.746;2023-12-07T05:48:08;42.90;;;27.70;;
16177;SDS011;8195;51.220;9.746;2023-12-07T05:52:30;44.83;;;28.40;;
16177;SDS011;8195;51.220;9.746;2023-12-07T05:56:50;40.13;;;26.17;;
16177;SDS011;8195;51.220;9.746;2023-12-07T06:01:10;37.23;;;27.07;;
16177;SDS011;8195;51.220;9.746;2023-12-07T06:05:31;40.43;;;26.20;;
16177;SDS011;8195;51.220;9.746;2023-12-07T06:09:51;40.47;;;27.63;;
16177;SDS011;8195;51.220;9.746;2023-12-07T06:14:11;41.53;;;26.87;;
16177;SDS011;8195;51.220;9.746;2023-12-07T06:18:32;38.43;;;26.00;;
16177;SDS011;8195;51.220;9.746;2023-12-07T06:22:52;41.07;;;26.67;;
16177;SDS011;8195;51.220;9.746;2023-12-07T06:27:12;42.47;;;27.10;;
16177;SDS011;8195;51.220;9.746;2023-12-07T06:31:33;40.70;;;27.87;;
16177;SDS011;8195;51.220;9.746;2023-12-07T06:35:53;36.87;;;25.50;;
16177;SDS011;8195;51.220;9.746;2023-12-07T06:40:14;38.93;;;25.57;;
16177;SDS011;8195;51.220;9.746;2023-12-07T06:44:34;39.87;;;27.43;;
16177;SDS011;8195;51.220;9.746;2023-12-07T06:48:55;44.53;;;28.47;;
16177;SDS011;8195;51.220;9.746;2023-12-07T06:53:15;38.67;;;25.47;;
16177;SDS011;8195;51.220;9.746;2023-12-07T06:57:35;38.43;;;25.17;;
16177;SDS011;8195;51.220;9.746;2023-12-07T07:01:56;38.00;;;25.27;;
16177;SDS011;8195;51.220;9.746;2023-12-07T07:06:16;35.47;;;24.73;;
16177;SDS011;8195;51.220;9.746;2023-12-07T07:10:36;35.30;;;23.73;;
16177;SDS011;8195;51.220;9.746;2023-12-07T07:14:57;39.03;;;26.13;;
16177;SDS011;8195;51.220;9.746;2023-12-07T07:19:17;38.70;;;25.47;;
16177;SDS011;8195;51.220;9.746;2023-12-07T07:23:37;36.60;;;24.47;;
16177;SDS011;8195;51.220;9.746;2023-12-07T07:27:58;34.60;;;24.50;;
16177;SDS011;8195;51.220;9.746;2023-12-07T07:32:18;36.23;;;24.77;;
16177;SDS011;8195;51.220;9.746;2023-12-07T07:36:38;39.20;;;23.27;;
16177;SDS011;8195;51.220;9.746;2023-12-07T07:40:59;35.03;;;23.47;;
16177;SDS011;8195;51.220;9.746;2023-12-07T07:45:19;33.90;;;23.67;;
16177;SDS011;8195;51.220;9.746;2023-12-07T07:49:39;34.37;;;23.70;;
16177;SDS011;8195;51.220;9.746;2023-12-07T07:54:00;33.50;;;23.40;;
16177;SDS011;8195;51.220;9.746;2023-12-07T07:58:21;32.50;;;23.57;;
16177;SDS011;8195;51.220;9.746;2023-12-07T08:02:41;34.17;;;22.73;;
16177;SDS011;8195;51.220;9.746;2023-12-07T08:07:01;34.87;;;22.40;;
16177;SDS011;8195;51.220;9.746;2023-12-07T08:11:22;34.80;;;23.63;;
16177;SDS011;8195;51.220;9.746;2023-12-07T08:15:42;30.67;;;23.73;;
16177;SDS011;8195;51.220;9.746;2023-12-07T08:20:03;37.87;;;23.77;;
16177;SDS011;8195;51.220;9.746;2023-12-07T08:24:24;33.93;;;23.20;;
16177;SDS011;8195;51.220;9.746;2023-12-07T08:28:44;35.03;;;23.43;;
16177;SDS011;8195;51.220;9.746;2023-12-07T08:33:04;34.03;;;22.80;;
16177;SDS011;8195;51.220;9.746;2023-12-07T08:37:25;33.63;;;23.10;;
16177;SDS011;8195;51.220;9.746;2023-12-07T08:41:45;30.60;;;22.33;;
16177;SDS011;8195;51.220;9.746;2023-12-07T08:46:05;32.60;;;22.93;;
16177;SDS011;8195;51.220;9.746;2023-12-07T08:50:26;35.17;;;22.40;;
16177;SDS011;8195;51.220;9.746;2023-12-07T08:54:46;33.17;;;22.33;;
16177;SDS011;8195;51.220;9.746;2023-12-07T08:59:06;31.60;;;21.47;;
16177;SDS011;8195;51.220;9.746;2023-12-07T09:03:27;29.97;;;21.13;;
16177;SDS011;8195;51.220;9.746;2023-12-07T09:07:47;27.50;;;19.70;;
16177;SDS011;8195;51.220;9.746;2023-12-07T09:12:07;29.43;;;21.03;;
16177;SDS011;8195;51.220;9.746;2023-12-07T09:16:28;25.03;;;18.83;;
16177;SDS011;8195;51.220;9.746;2023-12-07T09:20:48;31.43;;;20.60;;
16177;SDS011;8195;51.220;9.746;2023-12-07T09:25:08;29.17;;;20.77;;
16177;SDS011;8195;51.220;9.746;2023-12-07T09:29:29;29.97;;;19.83;;
16177;SDS011;8195;51.220;9.746;2023-12-07T09:33:49;29.30;;;19.80;;
16177;SDS011;8195;51.220;9.746;2023-12-07T09:38:10;25.87;;;19.10;;
16177;SDS011;8195;51.220;9.746;2023-12-07T09:42:30;27.07;;;20.10;;
16177;SDS011;8195;51.220;9.746;2023-12-07T09:46:50;27.57;;;20.20;;
16177;SDS011;8195;51.220;9.746;2023-12-07T09:51:11;28.90;;;19.90;;
16177;SDS011;8195;51.220;9.746;2023-12-07T09:55:31;25.10;;;18.90;;
16177;SDS011;8195;51.220;9.746;2023-12-07T09:59:51;25.03;;;18.63;;
16177;SDS011;8195;51.220;9.746;2023-12-07T10:04:15;23.93;;;17.50;;
16177;SDS011;8195;51.220;9.746;2023-12-07T10:08:35;25.93;;;18.10;;
16177;SDS011;8195;51.220;9.746;2023-12-07T10:12:56;26.80;;;19.43;;
16177;SDS011;8195;51.220;9.746;2023-12-07T10:17:18;23.67;;;17.63;;
16177;SDS011;8195;51.220;9.746;2023-12-07T10:21:39;25.70;;;17.80;;
16177;SDS011;8195;51.220;9.746;2023-12-07T10:25:59;23.40;;;17.97;;
16177;SDS011;8195;51.220;9.746;2023-12-07T10:30:20;22.43;;;16.50;;
16177;SDS011;8195;51.220;9.746;2023-12-07T10:34:41;23.27;;;17.03;;
16177;SDS011;8195;51.220;9.746;2023-12-07T10:39:01;21.30;;;16.97;;
16177;SDS011;8195;51.220;9.746;2023-12-07T10:43:22;21.43;;;16.80;;
16177;SDS011;8195;51.220;9.746;2023-12-07T10:47:43;22.73;;;16.97;;
16177;SDS011;8195;51.220;9.746;2023-12-07T10:52:06;20.67;;;16.20;;
16177;SDS011;8195;51.220;9.746;2023-12-07T10:56:41;23.80;;;16.27;;
16177;SDS011;8195;51.220;9.746;2023-12-07T11:01:03;18.60;;;15.07;;
16177;SDS011;8195;51.220;9.746;2023-12-07T11:05:24;17.00;;;14.47;;
16177;SDS011;8195;51.220;9.746;2023-12-07T11:09:45;17.53;;;14.50;;
16177;SDS011;8195;51.220;9.746;2023-12-07T11:14:10;18.67;;;15.17;;
16177;SDS011;8195;51.220;9.746;2023-12-07T11:18:30;18.97;;;15.53;;
16177;SDS011;8195;51.220;9.746;2023-12-07T11:22:51;18.63;;;14.80;;
16177;SDS011;8195;51.220;9.746;2023-12-07T11:27:11;19.53;;;15.30;;
16177;SDS011;8195;51.220;9.746;2023-12-07T11:31:32;20.10;;;14.57;;
16177;SDS011;8195;51.220;9.746;2023-12-07T11:36:11;18.37;;;14.60;;
16177;SDS011;8195;51.220;9.746;2023-12-07T11:40:32;16.77;;;13.60;;
16177;SDS011;8195;51.220;9.746;2023-12-07T11:44:54;15.10;;;13.10;;
16177;SDS011;8195;51.220;9.746;2023-12-07T11:49:15;15.43;;;12.90;;
16177;SDS011;8195;51.220;9.746;2023-12-07T11:53:36;14.13;;;11.70;;
16177;SDS011;8195;51.220;9.746;2023-12-07T11:57:57;14.07;;;12.20;;
16177;SDS011;8195;51.220;9.746;2023-12-07T12:02:18;15.43;;;13.23;;
16177;SDS011;8195;51.220;9.746;2023-12-07T12:06:38;15.97;;;12.33;;
16177;SDS011;8195;51.220;9.746;2023-12-07T12:10:58;14.10;;;12.23;;
16177;SDS011;8195;51.220;9.746;2023-12-07T12:15:19;16.47;;;12.57;;
16177;SDS011;8195;51.220;9.746;2023-12-07T12:19:39;14.87;;;12.03;;
16177;SDS011;8195;51.220;9.746;2023-12-07T12:24:00;13.97;;;12.37;;
16177;SDS011;8195;51.220;9.746;2023-12-07T12:28:20;14.77;;;12.07;;
16177;SDS011;8195;51.220;9.746;2023-12-07T12:32:44;13.83;;;12.37;;
16177;SDS011;8195;51.220;9.746;2023-12-07T12:37:07;16.60;;;13.20;;
16177;SDS011;8195;51.220;9.746;2023-12-07T12:41:28;16.40;;;13.17;;
16177;SDS011;8195;51.220;9.746;2023-12-07T12:45:48;18.43;;;13.37;;
16177;SDS011;8195;51.220;9.746;2023-12-07T12:50:09;15.40;;;13.67;;
16177;SDS011;8195;51.220;9.746;2023-12-07T12:54:31;15.47;;;13.10;;
16177;SDS011;8195;51.220;9.746;2023-12-07T12:58:51;13.80;;;12.27;;
16177;SDS011;8195;51.220;9.746;2023-12-07T13:03:12;17.90;;;13.57;;
16177;SDS011;8195;51.220;9.746;2023-12-07T13:07:33;19.17;;;14.43;;
16177;SDS011;8195;51.220;9.746;2023-12-07T13:11:53;18.03;;;14.93;;
16177;SDS011;8195;51.220;9.746;2023-12-07T13:16:13;19.47;;;16.10;;
16177;SDS011;8195;51.220;9.746;2023-12-07T13:20:34;21.93;;;16.50;;
16177;SDS011;8195;51.220;9.746;2023-12-07T13:24:54;19.67;;;15.70;;
16177;SDS011;8195;51.220;9.746;2023-12-07T13:29:15;19.57;;;15.23;;
16177;SDS011;8195;51.220;9.746;2023-12-07T13:33:35;17.77;;;14.80;;
16177;SDS011;8195;51.220;9.746;2023-12-07T13:37:55;16.33;;;13.83;;
16177;SDS011;8195;51.220;9.746;2023-12-07T13:42:16;16.33;;;14.20;;
16177;SDS011;8195;51.220;9.746;2023-12-07T13:46:36;16.30;;;13.70;;
16177;SDS011;8195;51.220;9.746;2023-12-07T13:50:56;20.57;;;15.33;;
16177;SDS011;8195;51.220;9.746;2023-12-07T13:55:17;17.73;;;13.67;;
16177;SDS011;8195;51.220;9.746;2023-12-07T13:59:37;16.97;;;13.73;;
16177;SDS011;8195;51.220;9.746;2023-12-07T14:03:58;14.33;;;12.50;;
16177;SDS011;8195;51.220;9.746;2023-12-07T14:08:18;14.30;;;12.13;;
16177;SDS011;8195;51.220;9.746;2023-12-07T14:12:38;14.17;;;12.10;;
16177;SDS011;8195;51.220;9.746;2023-12-07T14:16:59;16.00;;;12.07;;
16177;SDS011;8195;51.220;9.746;2023-12-07T14:21:20;13.30;;;11.27;;
16177;SDS011;8195;51.220;9.746;2023-12-07T14:25:40;14.43;;;11.70;;
16177;SDS011;8195;51.220;9.746;2023-12-07T14:30:00;12.77;;;10.50;;
16177;SDS011;8195;51.220;9.746;2023-12-07T14:34:21;12.27;;;10.30;;
16177;SDS011;8195;51.220;9.746;2023-12-07T14:38:41;13.63;;;11.57;;
16177;SDS011;8195;51.220;9.746;2023-12-07T14:43:02;13.87;;;10.93;;
16177;SDS011;8195;51.220;9.746;2023-12-07T14:47:22;15.53;;;11.93;;
16177;SDS011;8195;51.220;9.746;2023-12-07T14:51:42;13.87;;;11.67;;
16177;SDS011;8195;51.220;9.746;2023-12-07T14:56:03;11.67;;;10.33;;
16177;SDS011;8195;51.220;9.746;2023-12-07T15:00:24;13.73;;;11.33;;
16177;SDS011;8195;51.220;9.746;2023-12-07T15:04:44;15.93;;;12.07;;
16177;SDS011;8195;51.220;9.746;2023-12-07T15:09:05;15.43;;;11.93;;
16177;SDS011;8195;51.220;9.746;2023-12-07T15:13:26;17.67;;;12.93;;
16177;SDS011;8195;51.220;9.746;2023-12-07T15:17:46;16.43;;;12.10;;
16177;SDS011;8195;51.220;9.746;2023-12-07T15:22:06;15.53;;;11.63;;
16177;SDS011;8195;51.220;9.746;2023-12-07T15:26:27;17.20;;;12.43;;
16177;SDS011;8195;51.220;9.746;2023-12-07T15:30:48;14.30;;;11.40;;
16177;SDS011;8195;51.220;9.746;2023-12-07T15:35:08;15.30;;;10.97;;
16177;SDS011;8195;51.220;9.746;2023-12-07T15:39:29;14.80;;;11.10;;
16177;SDS011;8195;51.220;9.746;2023-12-07T15:43:49;12.97;;;11.07;;
16177;SDS011;8195;51.220;9.746;2023-12-07T15:48:09;15.83;;;11.73;;
16177;SDS011;8195;51.220;9.746;2023-12-07T15:52:30;15.37;;;11.37;;
16177;SDS011;8195;51.220;9.746;2023-12-07T15:56:50;14.00;;;10.17;;
16177;SDS011;8195;51.220;9.746;2023-12-07T16:01:10;15.67;;;11.70;;
16177;SDS011;8195;51.220;9.746;2023-12-07T16:05:31;14.07;;;11.23;;
16177;SDS011;8195;51.220;9.746;2023-12-07T16:09:51;15.73;;;11.97;;
16177;SDS011;8195;51.220;9.746;2023-12-07T16:14:11;16.87;;;11.97;;
16177;SDS011;8195;51.220;9.746;2023-12-07T16:18:31;16.97;;;12.40;;
16177;SDS011;8195;51.220;9.746;2023-12-07T16:22:52;20.47;;;13.53;;
16177;SDS011;8195;51.220;9.746;2023-12-07T16:27:12;15.37;;;11.97;;
16177;SDS011;8195;51.220;9.746;2023-12-07T16:31:33;15.60;;;11.63;;
16177;SDS011;8195;51.220;9.746;2023-12-07T16:35:53;15.50;;;11.67;;
16177;SDS011;8195;51.220;9.746;2023-12-07T16:40:13;15.23;;;11.80;;
16177;SDS011;8195;51.220;9.746;2023-12-07T16:44:34;15.50;;;11.43;;
16177;SDS011;8195;51.220;9.746;2023-12-07T16:48:54;15.60;;;11.93;;
16177;SDS011;8195;51.220;9.746;2023-12-07T16:53:14;19.07;;;12.57;;
16177;SDS011;8195;51.220;9.746;2023-12-07T16:57:35;14.90;;;11.90;;
16177;SDS011;8195;51.220;9.746;2023-12-07T17:01:55;16.73;;;11.90;;
16177;SDS011;8195;51.220;9.746;2023-12-07T17:06:15;14.50;;;11.30;;
16177;SDS011;8195;51.220;9.746;2023-12-07T17:10:36;18.67;;;12.63;;
16177;SDS011;8195;51.220;9.746;2023-12-07T17:14:56;17.57;;;13.13;;
16177;SDS011;8195;51.220;9.746;2023-12-07T17:19:17;19.97;;;15.23;;
16177;SDS011;8195;51.220;9.746;2023-12-07T17:23:38;22.20;;;14.93;;
16177;SDS011;8195;51.220;9.746;2023-12-07T17:27:58;22.93;;;16.00;;
16177;SDS011;8195;51.220;9.746;2023-12-07T17:32:18;23.10;;;15.20;;
16177;SDS011;8195;51.220;9.746;2023-12-07T17:36:39;23.90;;;15.67;;
16177;SDS011;8195;51.220;9.746;2023-12-07T17:40:59;23.80;;;15.73;;
16177;SDS011;8195;51.220;9.746;2023-12-07T17:45:19;22.13;;;15.63;;
16177;SDS011;8195;51.220;9.746;2023-12-07T17:49:40;23.57;;;15.43;;
16177;SDS011;8195;51.220;9.746;2023-12-07T17:54:00;22.97;;;15.77;;
16177;SDS011;8195;51.220;9.746;2023-12-07T17:58:20;27.07;;;16.83;;
16177;SDS011;8195;51.220;9.746;2023-12-07T18:02:41;25.33;;;16.67;;
16177;SDS011;8195;51.220;9.746;2023-12-07T18:07:01;25.30;;;17.63;;
16177;SDS011;8195;51.220;9.746;2023-12-07T18:11:22;30.07;;;19.20;;
16177;SDS011;8195;51.220;9.746;2023-12-07T18:15:43;27.50;;;18.23;;
16177;SDS011;8195;51.220;9.746;2023-12-07T18:20:04;28.37;;;19.77;;
16177;SDS011;8195;51.220;9.746;2023-12-07T18:24:24;30.33;;;20.27;;
16177;SDS011;8195;51.220;9.746;2023-12-07T18:28:45;27.30;;;20.57;;
16177;SDS011;8195;51.220;9.746;2023-12-07T18:33:05;29.00;;;19.10;;
16177;SDS011;8195;51.220;9.746;2023-12-07T18:37:25;30.40;;;19.07;;
16177;SDS011;8195;51.220;9.746;2023-12-07T18:41:46;29.73;;;20.40;;
16177;SDS011;8195;51.220;9.746;2023-12-07T18:46:06;32.70;;;20.10;;
16177;SDS011;8195;51.220;9.746;2023-12-07T18:50:26;25.07;;;16.03;;
16177;SDS011;8195;51.220;9.746;2023-12-07T18:54:47;28.00;;;18.10;;
16177;SDS011;8195;51.220;9.746;2023-12-07T18:59:07;28.23;;;18.00;;
16177;SDS011;8195;51.220;9.746;2023-12-07T19:03:27;29.10;;;19.60;;
16177;SDS011;8195;51.220;9.746;2023-12-07T19:07:47;30.53;;;20.07;;
16177;SDS011;8195;51.220;9.746;2023-12-07T19:12:08;32.17;;;20.37;;
16177;SDS011;8195;51.220;9.746;2023-12-07T19:16:28;26.73;;;17.83;;
16177;SDS011;8195;51.220;9.746;2023-12-07T19:20:48;26.23;;;17.30;;
16177;SDS011;8195;51.220;9.746;2023-12-07T19:25:09;26.00;;;16.93;;
16177;SDS011;8195;51.220;9.746;2023-12-07T19:29:29;24.80;;;17.03;;
16177;SDS011;8195;51.220;9.746;2023-12-07T19:33:49;21.63;;;16.00;;
16177;SDS011;8195;51.220;9.746;2023-12-07T19:38:10;26.17;;;18.07;;
16177;SDS011;8195;51.220;9.746;2023-12-07T19:42:30;26.60;;;18.50;;
16177;SDS011;8195;51.220;9.746;2023-12-07T19:46:50;22.63;;;16.50;;
16177;SDS011;8195;51.220;9.746;2023-12-07T19:51:11;26.67;;;17.27;;
16177;SDS011;8195;51.220;9.746;2023-12-07T19:55:36;26.10;;;19.00;;
16177;SDS011;8195;51.220;9.746;2023-12-07T19:59:57;23.23;;;15.97;;
16177;SDS011;8195;51.220;9.746;2023-12-07T20:04:17;23.63;;;15.73;;
16177;SDS011;8195;51.220;9.746;2023-12-07T20:08:37;21.50;;;15.53;;
16177;SDS011;8195;51.220;9.746;2023-12-07T20:12:58;21.07;;;15.73;;
16177;SDS011;8195;51.220;9.746;2023-12-07T20:17:18;19.43;;;13.93;;
16177;SDS011;8195;51.220;9.746;2023-12-07T20:21:40;21.10;;;16.30;;
16177;SDS011;8195;51.220;9.746;2023-12-07T20:26:01;22.87;;;16.60;;
16177;SDS011;8195;51.220;9.746;2023-12-07T20:30:22;17.23;;;13.70;;
16177;SDS011;8195;51.220;9.746;2023-12-07T20:34:42;20.57;;;15.30;;
16177;SDS011;8195;51.220;9.746;2023-12-07T20:39:02;23.83;;;14.77;;
16177;SDS011;8195;51.220;9.746;2023-12-07T20:43:23;21.93;;;17.03;;
16177;SDS011;8195;51.220;9.746;2023-12-07T20:47:43;25.20;;;16.93;;
16177;SDS011;8195;51.220;9.746;2023-12-07T20:52:03;21.30;;;15.60;;
16177;SDS011;8195;51.220;9.746;2023-12-07T20:56:24;24.27;;;18.00;;
16177;SDS011;8195;51.220;9.746;2023-12-07T21:00:44;25.27;;;18.13;;
16177;SDS011;8195;51.220;9.746;2023-12-07T21:05:05;23.30;;;15.93;;
16177;SDS011;8195;51.220;9.746;2023-12-07T21:09:26;21.37;;;15.27;;
16177;SDS011;8195;51.220;9.746;2023-12-07T21:13:46;19.57;;;13.27;;
16177;SDS011;8195;51.220;9.746;2023-12-07T21:18:06;22.97;;;15.00;;
16177;SDS011;8195;51.220;9.746;2023-12-07T21:22:27;24.03;;;16.03;;
16177;SDS011;8195;51.220;9.746;2023-12-07T21:26:47;23.00;;;15.00;;
16177;SDS011;8195;51.220;9.746;2023-12-07T21:31:07;19.77;;;13.53;;
16177;SDS011;8195;51.220;9.746;2023-12-07T21:35:27;19.30;;;14.00;;
16177;SDS011;8195;51.220;9.746;2023-12-07T21:39:48;17.73;;;13.43;;
16177;SDS011;8195;51.220;9.746;2023-12-07T21:48:51;21.50;;;14.87;;
16177;SDS011;8195;51.220;9.746;2023-12-07T21:53:11;17.50;;;13.27;;
16177;SDS011;8195;51.220;9.746;2023-12-07T21:57:31;19.20;;;12.50;;
16177;SDS011;8195;51.220;9.746;2023-12-07T22:01:52;17.27;;;12.73;;
16177;SDS011;8195;51.220;9.746;2023-12-07T22:06:12;19.87;;;14.37;;
16177;SDS011;8195;51.220;9.746;2023-12-07T22:10:32;21.03;;;14.03;;
16177;SDS011;8195;51.220;9.746;2023-12-07T22:14:53;18.30;;;13.07;;
16177;SDS011;8195;51.220;9.746;2023-12-07T22:24:11;20.07;;;14.20;;
16177;SDS011;8195;51.220;9.746;2023-12-07T22:28:31;19.93;;;13.30;;
16177;SDS011;8195;51.220;9.746;2023-12-07T22:32:52;22.37;;;14.60;;
16177;SDS011;8195;51.220;9.746;2023-12-07T22:37:12;24.53;;;15.90;;
16177;SDS011;8195;51.220;9.746;2023-12-07T22:41:32;21.43;;;15.63;;
16177;SDS011;8195;51.220;9.746;2023-12-07T22:45:53;21.67;;;14.10;;
16177;SDS011;8195;51.220;9.746;2023-12-07T22:50:13;21.30;;;14.80;;
16177;SDS011;8195;51.220;9.746;2023-12-07T22:54:33;22.37;;;16.63;;
16177;SDS011;8195;51.220;9.746;2023-12-07T22:58:54;25.30;;;15.63;;
16177;SDS011;8195;51.220;9.746;2023-12-07T23:03:14;26.13;;;16.17;;
16177;SDS011;8195;51.220;9.746;2023-12-07T23:07:34;25.47;;;16.23;;
16177;SDS011;8195;51.220;9.746;2023-12-07T23:11:55;24.00;;;15.73;;
16177;SDS011;8195;51.220;9.746;2023-12-07T23:16:15;24.97;;;17.40;;
16177;SDS011;8195;51.220;9.746;2023-12-07T23:20:35;30.23;;;17.70;;
16177;SDS011;8195;51.220;9.746;2023-12-07T23:24:56;28.07;;;18.50;;
16177;SDS011;8195;51.220;9.746;2023-12-07T23:29:17;27.73;;;16.97;;
16177;SDS011;8195;51.220;9.746;2023-12-07T23:33:37;24.50;;;15.83;;
16177;SDS011;8195;51.220;9.746;2023-12-07T23:37:57;24.63;;;17.27;;
16177;SDS011;8195;51.220;9.746;2023-12-07T23:42:18;24.80;;;16.73;;
16177;SDS011;8195;51.220;9.746;2023-12-07T23:46:40;26.13;;;16.47;;
16177;SDS011;8195;51.220;9.746;2023-12-07T23:51:01;22.93;;;16.17;;
16177;SDS011;8195;51.220;9.746;2023-12-07T23:55:21;24.43;;;16.80;;
16177;SDS011;8195;51.220;9.746;2023-12-07T23:59:41;22.87;;;15.57;;
